Time;durP1;ratioP1;P1;durP2;ratioP2;P2;SDS_P1;SDS_P2;PMS_P1;PMS_P2;Temp;Humidity;BMP_temperature;BMP_pressure;BME280_temperature;BME280_humidity;BME280_pressure;Samples;Min_cycle;Max_cycle;Signal;HPM_P1;HPM_P2
2021/12/17 00:00:25;;;;;;;44.05;19.05;;;;;;;;;;5036619;28;20075;-77
2021/12/17 00:05:45;;;;;;;38.30;17.85;;;;;;;;;;5053800;28;20040;-77
2021/12/17 00:08:11;;;;;;;36.92;17.52;;;;;;;;;;5038585;28;20110;-77
2021/12/17 00:10:36;;;;;;;41.25;17.90;;;;;;;;;;5053971;28;20047;-77
2021/12/17 00:13:02;;;;;;;39.90;18.83;;;;;;;;;;5052950;28;20079;-77
2021/12/17 00:15:27;;;;;;;36.03;17.45;;;;;;;;;;5054224;28;20033;-78
2021/12/17 00:17:59;;;;;;;34.97;16.85;;;;;;;;;;5059087;28;20057;-75
2021/12/17 00:53:15;;;;;;;18.58;9.85;;;;;;;;;;5056366;28;20107;-77
2021/12/17 00:55:41;;;;;;;20.75;9.20;;;;;;;;;;5057575;28;20074;-76
2021/12/17 00:58:07;;;;;;;19.63;9.45;;;;;;;;;;5057765;28;20116;-77
2021/12/17 01:00:32;;;;;;;15.25;8.48;;;;;;;;;;5060227;28;20062;-76
2021/12/17 01:02:58;;;;;;;14.90;7.47;;;;;;;;;;5058202;28;20033;-78
2021/12/17 01:05:25;;;;;;;12.02;6.38;;;;;;;;;;5056491;28;20159;-76
2021/12/17 01:07:52;;;;;;;15.13;7.03;;;;;;;;;;5057642;28;20017;-76
2021/12/17 01:10:22;;;;;;;13.93;7.60;;;;;;;;;;5056200;28;20478;-76
2021/12/17 01:12:48;;;;;;;15.50;6.88;;;;;;;;;;5040172;28;20031;-76
2021/12/17 01:15:14;;;;;;;12.25;6.60;;;;;;;;;;5057430;28;20032;-76
2021/12/17 01:17:42;;;;;;;10.60;6.38;;;;;;;;;;5039821;28;20021;-76
2021/12/17 01:25:48;;;;;;;14.30;7.72;;;;;;;;;;5057292;28;20060;-77
2021/12/17 01:36:12;;;;;;;11.05;7.22;;;;;;;;;;5057152;28;20082;-77
2021/12/17 01:43:59;;;;;;;11.35;6.78;;;;;;;;;;5059461;28;20094;-76
2021/12/17 01:46:26;;;;;;;12.18;6.90;;;;;;;;;;5056727;28;20407;-76
2021/12/17 01:49:24;;;;;;;14.43;6.95;;;;;;;;;;5055750;28;20025;-76
2021/12/17 01:59:51;;;;;;;13.30;6.72;;;;;;;;;;5056728;28;20369;-76
2021/12/17 02:02:17;;;;;;;10.60;6.45;;;;;;;;;;5056634;28;20120;-76
2021/12/17 02:04:43;;;;;;;10.35;6.03;;;;;;;;;;5058201;28;20060;-77
2021/12/17 02:07:09;;;;;;;11.25;6.60;;;;;;;;;;5056521;28;20429;-76
2021/12/17 02:28:54;;;;;;;25.45;12.10;;;;;;;;;;4985369;28;20142;-75
2021/12/17 02:31:33;;;;;;;21.40;10.68;;;;;;;;;;5056051;28;20021;-75
2021/12/17 02:34:06;;;;;;;18.48;9.60;;;;;;;;;;5054667;28;20048;-75
2021/12/17 02:36:34;;;;;;;23.83;10.15;;;;;;;;;;5038421;28;20033;-76
2021/12/17 02:47:23;;;;;;;19.52;10.10;;;;;;;;;;5055809;28;20079;-76
2021/12/17 02:49:48;;;;;;;15.63;9.07;;;;;;;;;;5057587;28;20407;-76
2021/12/17 02:52:14;;;;;;;16.35;9.23;;;;;;;;;;5054484;28;20032;-76
2021/12/17 02:54:40;;;;;;;16.73;9.25;;;;;;;;;;5055567;28;20083;-77
2021/12/17 02:57:06;;;;;;;19.67;9.93;;;;;;;;;;5021590;28;20455;-76
2021/12/17 02:59:32;;;;;;;17.98;9.80;;;;;;;;;;5038093;28;20119;-77
2021/12/17 03:01:58;;;;;;;15.00;8.98;;;;;;;;;;5054303;28;20036;-76
2021/12/17 03:04:23;;;;;;;21.25;10.43;;;;;;;;;;5054519;28;20033;-76
2021/12/17 03:06:49;;;;;;;20.40;10.50;;;;;;;;;;5037620;28;20463;-76
2021/12/17 03:09:16;;;;;;;24.15;11.48;;;;;;;;;;5041607;28;20031;-76
2021/12/17 03:11:41;;;;;;;24.35;12.07;;;;;;;;;;5037836;28;20027;-77
2021/12/17 03:14:08;;;;;;;25.40;11.70;;;;;;;;;;5037470;28;20033;-77
2021/12/17 03:16:39;;;;;;;25.65;12.68;;;;;;;;;;5054639;28;20440;-76
2021/12/17 03:23:24;;;;;;;21.90;11.30;;;;;;;;;;5054915;28;20029;-75
2021/12/17 03:24:42;;;;;;;26.20;12.93;;;;;;;;;;5046682;28;20439;-75
2021/12/17 03:27:07;;;;;;;27.77;13.65;;;;;;;;;;5054501;28;20060;-76
2021/12/17 03:29:33;;;;;;;26.00;12.88;;;;;;;;;;5057494;28;20348;-76
2021/12/17 03:32:00;;;;;;;28.45;14.15;;;;;;;;;;5037093;28;20039;-76
2021/12/17 03:34:25;;;;;;;28.92;14.15;;;;;;;;;;5037206;28;20025;-76
2021/12/17 03:36:54;;;;;;;32.83;14.57;;;;;;;;;;5054878;28;20086;-76
2021/12/17 03:39:21;;;;;;;28.23;13.93;;;;;;;;;;5053489;28;20049;-76
2021/12/17 03:41:51;;;;;;;30.15;13.63;;;;;;;;;;5054689;28;20102;-76
2021/12/17 03:44:17;;;;;;;31.85;13.35;;;;;;;;;;5055063;28;20037;-76
2021/12/17 03:46:44;;;;;;;28.45;13.00;;;;;;;;;;5053732;28;20025;-76
2021/12/17 03:49:10;;;;;;;30.33;14.00;;;;;;;;;;5055171;28;20087;-77
2021/12/17 03:51:46;;;;;;;32.53;14.75;;;;;;;;;;5054798;28;20033;-77
2021/12/17 03:54:12;;;;;;;29.85;14.65;;;;;;;;;;5056954;28;20484;-77
2021/12/17 03:56:37;;;;;;;28.10;13.68;;;;;;;;;;5054241;28;20025;-76
2021/12/17 03:59:10;;;;;;;26.92;13.52;;;;;;;;;;5055438;28;20029;-76
2021/12/17 04:01:35;;;;;;;27.98;13.30;;;;;;;;;;5057083;28;20045;-77
2021/12/17 04:04:01;;;;;;;24.60;12.30;;;;;;;;;;5056953;28;20032;-77
2021/12/17 04:06:26;;;;;;;24.52;11.50;;;;;;;;;;5054482;28;20025;-77
2021/12/17 04:08:52;;;;;;;21.75;11.00;;;;;;;;;;5059435;28;20025;-77
2021/12/17 04:11:19;;;;;;;23.83;11.82;;;;;;;;;;5054590;28;20029;-77
2021/12/17 04:13:52;;;;;;;20.17;10.90;;;;;;;;;;5052822;28;20029;-77
2021/12/17 04:16:22;;;;;;;21.90;10.90;;;;;;;;;;5054433;28;20048;-77
2021/12/17 04:18:47;;;;;;;25.13;12.23;;;;;;;;;;5053928;28;20032;-77
2021/12/17 04:21:15;;;;;;;22.80;10.80;;;;;;;;;;5036249;28;20108;-77
2021/12/17 04:23:42;;;;;;;23.00;11.35;;;;;;;;;;5020630;28;20094;-77
2021/12/17 04:26:07;;;;;;;23.10;11.57;;;;;;;;;;5036311;28;20349;-76
2021/12/17 04:28:36;;;;;;;21.75;11.48;;;;;;;;;;5055911;28;20031;-77
2021/12/17 04:31:01;;;;;;;26.00;11.40;;;;;;;;;;5036824;28;20021;-77
2021/12/17 04:33:27;;;;;;;20.33;10.23;;;;;;;;;;5053985;28;20025;-78
2021/12/17 04:35:52;;;;;;;23.25;11.55;;;;;;;;;;5053949;28;20438;-77
2021/12/17 04:38:20;;;;;;;19.40;9.63;;;;;;;;;;5069475;28;20128;-77
2021/12/17 04:40:48;;;;;;;18.42;10.18;;;;;;;;;;5054118;28;20503;-78
2021/12/17 04:45:44;;;;;;;24.23;11.02;;;;;;;;;;5054052;28;20028;-77
2021/12/17 04:59:07;;;;;;;28.25;11.93;;;;;;;;;;5053614;28;20387;-77
2021/12/17 05:01:34;;;;;;;18.90;10.05;;;;;;;;;;5052229;28;20028;-76
2021/12/17 05:03:59;;;;;;;24.67;11.13;;;;;;;;;;5053718;28;20115;-76
2021/12/17 05:06:29;;;;;;;25.73;10.25;;;;;;;;;;5055558;28;20063;-76
2021/12/17 05:08:59;;;;;;;26.33;10.02;;;;;;;;;;5053759;28;20048;-77
2021/12/17 05:11:48;;;;;;;20.02;10.07;;;;;;;;;;5053494;28;20032;-77
2021/12/17 05:19:46;;;;;;;34.65;13.32;;;;;;;;;;5053456;28;20372;-77
2021/12/17 05:22:15;;;;;;;27.92;12.88;;;;;;;;;;5053439;28;20048;-74
2021/12/17 05:24:40;;;;;;;23.83;10.75;;;;;;;;;;5052257;28;20025;-75
2021/12/17 05:27:06;;;;;;;17.88;9.68;;;;;;;;;;5055693;28;20029;-76
2021/12/17 05:29:31;;;;;;;19.33;8.50;;;;;;;;;;5051930;28;20032;-76
2021/12/17 05:31:57;;;;;;;20.27;9.02;;;;;;;;;;5053359;28;20031;-76
2021/12/17 05:34:23;;;;;;;18.58;9.15;;;;;;;;;;5053689;28;20029;-76
2021/12/17 05:36:49;;;;;;;17.42;9.07;;;;;;;;;;5053014;28;20025;-75
2021/12/17 05:39:15;;;;;;;20.00;9.57;;;;;;;;;;5052810;28;20041;-76
2021/12/17 05:41:40;;;;;;;19.17;9.25;;;;;;;;;;5055379;28;20368;-76
2021/12/17 05:44:06;;;;;;;14.77;7.85;;;;;;;;;;5055109;28;20041;-75
2021/12/17 05:46:48;;;;;;;17.25;8.88;;;;;;;;;;5060445;28;20039;-75
2021/12/17 05:49:13;;;;;;;20.58;9.02;;;;;;;;;;5055693;28;20116;-78
2021/12/17 05:51:39;;;;;;;18.10;8.63;;;;;;;;;;5034051;28;20456;-77
2021/12/17 05:54:04;;;;;;;28.38;14.32;;;;;;;;;;5040033;28;20032;-77
2021/12/17 05:56:30;;;;;;;25.25;12.20;;;;;;;;;;5067770;28;20120;-78
2021/12/17 05:59:06;;;;;;;21.52;9.90;;;;;;;;;;5048777;28;20057;-78
2021/12/17 06:01:37;;;;;;;26.92;11.55;;;;;;;;;;5051238;28;20028;-78
2021/12/17 06:04:09;;;;;;;22.52;11.35;;;;;;;;;;5037213;28;20444;-78
2021/12/17 06:06:36;;;;;;;21.92;10.63;;;;;;;;;;5058486;28;20028;-76
2021/12/17 06:09:08;;;;;;;22.63;9.93;;;;;;;;;;5052949;28;20021;-75
2021/12/17 06:11:37;;;;;;;19.88;9.77;;;;;;;;;;5051156;28;20028;-76
2021/12/17 06:14:03;;;;;;;21.55;10.05;;;;;;;;;;5051527;28;20021;-76
2021/12/17 06:16:30;;;;;;;20.45;9.85;;;;;;;;;;5051633;28;20064;-76
2021/12/17 06:18:55;;;;;;;19.38;8.48;;;;;;;;;;5051231;28;20102;-77
2021/12/17 06:21:21;;;;;;;17.70;8.50;;;;;;;;;;5051919;28;20091;-75
2021/12/17 06:23:50;;;;;;;23.25;9.90;;;;;;;;;;5052645;28;20459;-76
2021/12/17 06:26:16;;;;;;;18.77;10.02;;;;;;;;;;5055862;28;20096;-75
2021/12/17 06:28:41;;;;;;;16.83;8.77;;;;;;;;;;5057471;28;20110;-74
2021/12/17 06:31:07;;;;;;;17.55;8.57;;;;;;;;;;5049985;28;20094;-75
2021/12/17 06:33:46;;;;;;;17.67;8.15;;;;;;;;;;5056482;28;20460;-76
2021/12/17 06:36:18;;;;;;;17.75;8.70;;;;;;;;;;5055310;28;20044;-77
2021/12/17 06:38:43;;;;;;;17.08;8.90;;;;;;;;;;5058963;28;20063;-76
2021/12/17 06:41:09;;;;;;;18.55;8.52;;;;;;;;;;5051071;28;20029;-77
2021/12/17 06:43:40;;;;;;;25.33;10.07;;;;;;;;;;5063664;28;20033;-77
2021/12/17 06:46:25;;;;;;;26.05;11.32;;;;;;;;;;5055188;28;20063;-76
2021/12/17 06:49:21;;;;;;;19.52;9.55;;;;;;;;;;5037207;28;20079;-77
2021/12/17 07:10:37;;;;;;;15.40;7.03;;;;;;;;;;5067203;28;20112;-76
2021/12/17 07:24:47;;;;;;;14.40;7.07;;;;;;;;;;5052726;28;20380;-74
2021/12/17 07:40:05;;;;;;;10.38;5.88;;;;;;;;;;5065338;28;20072;-78
2021/12/17 07:42:31;;;;;;;22.80;8.32;;;;;;;;;;5068814;28;20082;-77
2021/12/17 07:44:57;;;;;;;14.95;6.78;;;;;;;;;;5052665;28;20069;-79
2021/12/17 07:47:23;;;;;;;11.18;6.00;;;;;;;;;;5056340;28;20368;-76
2021/12/17 07:49:49;;;;;;;11.23;6.25;;;;;;;;;;5051757;28;20021;-77
2021/12/17 07:52:14;;;;;;;12.70;5.95;;;;;;;;;;5050178;28;20183;-79
2021/12/17 07:54:40;;;;;;;8.48;5.20;;;;;;;;;;5050799;28;20123;-76
2021/12/17 07:57:09;;;;;;;10.73;5.28;;;;;;;;;;5053573;28;20032;-73
2021/12/17 07:59:35;;;;;;;11.82;7.13;;;;;;;;;;5047295;28;20032;-70
2021/12/17 08:02:01;;;;;;;16.85;8.70;;;;;;;;;;5045932;28;20525;-70
2021/12/17 08:04:26;;;;;;;28.40;12.50;;;;;;;;;;5056847;28;20037;-74
2021/12/17 08:06:52;;;;;;;21.15;9.48;;;;;;;;;;5051352;28;20345;-70
2021/12/17 08:09:19;;;;;;;9.88;5.70;;;;;;;;;;5049142;28;20051;-72
2021/12/17 08:11:45;;;;;;;12.57;6.63;;;;;;;;;;5048112;28;20024;-75
2021/12/17 08:14:15;;;;;;;42.22;22.75;;;;;;;;;;5040215;28;20365;-77
2021/12/17 08:31:57;;;;;;;7.93;4.75;;;;;;;;;;5065738;28;20021;-73
2021/12/17 08:34:26;;;;;;;6.78;4.30;;;;;;;;;;5034344;28;20035;-76
2021/12/17 08:36:52;;;;;;;8.02;5.60;;;;;;;;;;5050758;28;20503;-75
2021/12/17 08:39:17;;;;;;;11.05;6.40;;;;;;;;;;5040811;28;20187;-75
2021/12/17 08:41:43;;;;;;;7.68;4.90;;;;;;;;;;5046721;28;20057;-75
2021/12/17 08:44:08;;;;;;;17.85;12.57;;;;;;;;;;5045648;28;20183;-76
2021/12/17 08:46:34;;;;;;;117.97;31.92;;;;;;;;;;5053334;28;20029;-73
2021/12/17 08:49:00;;;;;;;10.32;4.30;;;;;;;;;;5030523;28;20024;-75
2021/12/17 08:51:26;;;;;;;7.65;4.70;;;;;;;;;;5045604;28;20040;-73
2021/12/17 08:53:51;;;;;;;7.70;4.47;;;;;;;;;;5045156;28;20479;-76
2021/12/17 08:56:20;;;;;;;11.27;7.07;;;;;;;;;;5045677;28;20361;-76
2021/12/17 08:58:52;;;;;;;17.08;8.95;;;;;;;;;;5044134;28;20040;-74
2021/12/17 09:01:18;;;;;;;10.30;5.05;;;;;;;;;;5039026;28;20025;-74
2021/12/17 09:03:44;;;;;;;11.60;5.80;;;;;;;;;;5040587;28;20044;-72
2021/12/17 09:06:09;;;;;;;12.10;6.65;;;;;;;;;;5039686;28;20032;-72
2021/12/17 09:08:34;;;;;;;9.23;5.53;;;;;;;;;;5041305;28;20414;-72
2021/12/17 09:11:00;;;;;;;10.68;5.95;;;;;;;;;;5044540;28;20460;-71
2021/12/17 09:13:26;;;;;;;26.33;11.27;;;;;;;;;;5050645;28;20394;-73
2021/12/17 09:15:56;;;;;;;6.35;3.42;;;;;;;;;;5063869;28;20142;-74
2021/12/17 09:18:23;;;;;;;8.10;3.85;;;;;;;;;;5053349;28;20029;-72
2021/12/17 09:20:48;;;;;;;9.38;4.80;;;;;;;;;;5055016;28;20436;-75
2021/12/17 09:23:14;;;;;;;10.55;5.05;;;;;;;;;;5070233;28;20037;-74
2021/12/17 09:25:39;;;;;;;5.32;3.05;;;;;;;;;;5055316;28;20033;-73
2021/12/17 09:28:05;;;;;;;5.53;3.55;;;;;;;;;;5045308;28;20041;-74
2021/12/17 09:30:31;;;;;;;7.50;4.60;;;;;;;;;;5058203;28;20487;-74
2021/12/17 09:32:57;;;;;;;13.63;5.10;;;;;;;;;;5040037;28;20131;-73
2021/12/17 09:35:24;;;;;;;9.57;5.05;;;;;;;;;;5065071;28;20178;-77
2021/12/17 09:37:51;;;;;;;11.30;4.95;;;;;;;;;;5043541;28;20498;-72
2021/12/17 09:40:17;;;;;;;13.95;4.80;;;;;;;;;;5027565;28;20037;-75
2021/12/17 09:42:45;;;;;;;13.60;4.57;;;;;;;;;;5029175;28;20023;-76
2021/12/17 09:45:18;;;;;;;8.55;4.93;;;;;;;;;;5039726;28;20044;-75
2021/12/17 09:48:24;;;;;;;14.20;7.25;;;;;;;;;;5068813;28;20037;-76
2021/12/17 09:50:49;;;;;;;14.65;6.28;;;;;;;;;;5069853;28;20044;-75
2021/12/17 09:53:15;;;;;;;10.35;6.50;;;;;;;;;;5053784;28;20025;-75
2021/12/17 09:55:40;;;;;;;8.07;4.40;;;;;;;;;;5053222;28;20040;-77
2021/12/17 09:58:06;;;;;;;8.85;4.55;;;;;;;;;;5054097;28;20456;-76
2021/12/17 10:00:32;;;;;;;8.30;3.38;;;;;;;;;;5033294;28;20040;-75
2021/12/17 10:02:57;;;;;;;10.15;3.20;;;;;;;;;;5052671;28;20041;-75
2021/12/17 10:05:24;;;;;;;7.45;4.25;;;;;;;;;;5052365;28;20387;-73
2021/12/17 10:07:54;;;;;;;7.10;4.35;;;;;;;;;;5051644;28;20114;-72
2021/12/17 10:10:19;;;;;;;4.20;2.97;;;;;;;;;;5050740;28;20519;-73
2021/12/17 10:12:46;;;;;;;6.25;3.38;;;;;;;;;;5067795;28;20163;-72
2021/12/17 10:15:20;;;;;;;14.98;5.35;;;;;;;;;;5065355;28;20033;-75
2021/12/17 10:17:54;;;;;;;10.65;4.88;;;;;;;;;;5047790;28;20035;-72
2021/12/17 10:20:20;;;;;;;7.78;3.22;;;;;;;;;;5071366;28;20036;-74
2021/12/17 10:22:46;;;;;;;21.52;9.60;;;;;;;;;;5073150;28;20060;-76
2021/12/17 10:25:12;;;;;;;10.40;5.28;;;;;;;;;;5091134;28;20024;-75
2021/12/17 10:27:40;;;;;;;12.65;5.20;;;;;;;;;;5073700;28;20051;-76
2021/12/17 10:30:23;;;;;;;13.45;6.05;;;;;;;;;;5075935;28;20091;-72
2021/12/17 10:32:52;;;;;;;7.70;3.25;;;;;;;;;;5058863;28;20119;-74
2021/12/17 10:35:28;;;;;;;6.22;3.60;;;;;;;;;;5052829;28;20029;-77
2021/12/17 10:37:56;;;;;;;7.40;3.75;;;;;;;;;;5034211;28;20031;-76
2021/12/17 10:40:27;;;;;;;12.00;5.07;;;;;;;;;;5046547;28;20077;-75
2021/12/17 10:43:05;;;;;;;21.55;9.38;;;;;;;;;;5050241;28;20067;-76
2021/12/17 10:45:37;;;;;;;27.45;10.00;;;;;;;;;;5014547;28;20033;-76
2021/12/17 10:50:53;;;;;;;18.98;6.07;;;;;;;;;;5059994;28;20041;-74
2021/12/17 10:53:25;;;;;;;22.83;8.85;;;;;;;;;;5044991;28;20464;-75
2021/12/17 10:55:51;;;;;;;28.20;13.73;;;;;;;;;;5043958;28;20178;-72
2021/12/17 10:58:20;;;;;;;15.20;8.52;;;;;;;;;;5038407;28;20029;-73
2021/12/17 11:01:02;;;;;;;11.25;4.72;;;;;;;;;;5028095;28;20091;-77
2021/12/17 11:03:28;;;;;;;13.40;5.07;;;;;;;;;;5036784;28;20033;-75
2021/12/17 11:05:54;;;;;;;13.43;4.72;;;;;;;;;;5044570;28;20023;-75
2021/12/17 11:08:37;;;;;;;28.55;7.60;;;;;;;;;;5041676;28;20039;-73
2021/12/17 11:11:12;;;;;;;11.60;4.07;;;;;;;;;;5040560;28;20170;-74
2021/12/17 11:13:58;;;;;;;6.53;3.03;;;;;;;;;;5039129;28;20026;-75
2021/12/17 11:16:26;;;;;;;7.60;3.22;;;;;;;;;;5043309;28;20027;-76
2021/12/17 11:18:52;;;;;;;7.80;3.53;;;;;;;;;;5041601;28;21033;-75
2021/12/17 11:21:19;;;;;;;9.35;4.72;;;;;;;;;;5050996;28;20024;-73
2021/12/17 11:23:45;;;;;;;8.93;4.18;;;;;;;;;;5037310;28;20125;-75
2021/12/17 11:26:11;;;;;;;11.82;4.45;;;;;;;;;;5067346;28;20072;-73
2021/12/17 11:28:36;;;;;;;11.48;5.15;;;;;;;;;;5041598;28;20101;-74
2021/12/17 11:31:02;;;;;;;11.25;5.03;;;;;;;;;;5079388;28;20284;-75
2021/12/17 11:33:27;;;;;;;9.23;4.28;;;;;;;;;;5052693;28;20033;-77
2021/12/17 11:35:54;;;;;;;21.85;7.50;;;;;;;;;;5033056;28;20064;-76
2021/12/17 11:38:50;;;;;;;17.23;7.50;;;;;;;;;;5051341;28;20072;-77
2021/12/17 11:41:19;;;;;;;21.55;8.23;;;;;;;;;;5067570;28;20033;-77
2021/12/17 11:43:57;;;;;;;16.13;6.00;;;;;;;;;;5071398;28;20120;-76
2021/12/17 11:46:31;;;;;;;14.75;5.95;;;;;;;;;;5049615;28;20528;-76
2021/12/17 11:48:59;;;;;;;15.10;6.13;;;;;;;;;;5049887;28;20024;-75
2021/12/17 11:51:29;;;;;;;13.10;5.60;;;;;;;;;;5066672;28;20028;-76
2021/12/17 11:54:00;;;;;;;13.43;6.28;;;;;;;;;;5052243;28;20033;-78
2021/12/17 11:56:52;;;;;;;41.30;18.90;;;;;;;;;;5066555;28;20037;-77
2021/12/17 11:59:27;;;;;;;18.83;8.73;;;;;;;;;;5067231;28;20033;-77
2021/12/17 12:02:14;;;;;;;8.20;3.78;;;;;;;;;;5055048;28;20037;-77
2021/12/17 12:04:59;;;;;;;12.70;4.85;;;;;;;;;;5054352;28;20033;-77
2021/12/17 12:07:24;;;;;;;13.90;6.78;;;;;;;;;;5052036;28;20343;-73
2021/12/17 12:09:59;;;;;;;7.75;4.30;;;;;;;;;;5051772;28;20025;-74
2021/12/17 12:12:31;;;;;;;12.50;5.28;;;;;;;;;;5050039;28;20379;-73
2021/12/17 12:15:27;;;;;;;12.82;5.20;;;;;;;;;;5051442;28;20029;-73
2021/12/17 12:18:15;;;;;;;19.55;9.15;;;;;;;;;;5052779;28;20479;-74
2021/12/17 12:20:55;;;;;;;8.25;4.07;;;;;;;;;;5053037;28;20296;-72
2021/12/17 12:23:28;;;;;;;12.90;6.43;;;;;;;;;;5052913;28;20440;-73
2021/12/17 12:26:08;;;;;;;10.02;4.70;;;;;;;;;;5067609;28;20086;-74
2021/12/17 12:28:48;;;;;;;11.77;5.38;;;;;;;;;;5053037;28;20028;-76
2021/12/17 12:31:16;;;;;;;10.93;5.30;;;;;;;;;;5051623;28;20025;-76
2021/12/17 12:34:03;;;;;;;9.75;4.28;;;;;;;;;;5051018;28;20032;-76
2021/12/17 12:36:48;;;;;;;9.40;5.53;;;;;;;;;;5049750;28;20029;-75
2021/12/17 12:39:57;;;;;;;10.63;4.78;;;;;;;;;;5048008;28;20048;-76
2021/12/17 12:42:23;;;;;;;9.40;4.68;;;;;;;;;;5053602;28;20056;-76
2021/12/17 12:44:48;;;;;;;25.70;12.02;;;;;;;;;;5030040;28;20128;-75
2021/12/17 12:47:14;;;;;;;30.13;15.05;;;;;;;;;;5051235;28;20166;-76
2021/12/17 12:49:44;;;;;;;13.02;6.07;;;;;;;;;;5054642;28;20111;-76
2021/12/17 12:52:26;;;;;;;10.90;5.68;;;;;;;;;;5053515;28;20452;-75
2021/12/17 12:54:52;;;;;;;11.02;4.82;;;;;;;;;;5053194;28;20445;-75
2021/12/17 12:57:24;;;;;;;9.90;4.95;;;;;;;;;;5054003;28;20493;-78
2021/12/17 12:59:51;;;;;;;11.43;4.82;;;;;;;;;;5050759;28;20479;-75
2021/12/17 13:02:17;;;;;;;13.50;6.93;;;;;;;;;;5020773;28;20025;-78
2021/12/17 13:04:42;;;;;;;17.67;7.60;;;;;;;;;;5051007;28;20466;-74
2021/12/17 13:07:08;;;;;;;19.63;9.65;;;;;;;;;;5051947;28;20096;-75
2021/12/17 13:09:33;;;;;;;20.92;9.60;;;;;;;;;;5036431;28;20456;-75
2021/12/17 13:11:59;;;;;;;15.60;6.35;;;;;;;;;;5037381;28;20107;-74
2021/12/17 13:14:26;;;;;;;28.67;8.27;;;;;;;;;;5055748;28;20029;-74
2021/12/17 13:17:16;;;;;;;15.68;6.28;;;;;;;;;;5056351;28;20372;-75
2021/12/17 13:22:53;;;;;;;16.50;7.25;;;;;;;;;;5056705;28;20048;-76
2021/12/17 13:25:25;;;;;;;29.55;9.10;;;;;;;;;;5057590;28;20029;-75
2021/12/17 13:27:53;;;;;;;11.27;6.13;;;;;;;;;;5039598;28;20029;-76
2021/12/17 13:30:24;;;;;;;13.85;6.13;;;;;;;;;;5056356;28;20021;-75
2021/12/17 13:32:51;;;;;;;14.20;7.22;;;;;;;;;;5039346;28;20032;-77
2021/12/17 13:35:17;;;;;;;16.17;6.68;;;;;;;;;;5055846;28;20029;-77
2021/12/17 13:37:43;;;;;;;15.52;6.55;;;;;;;;;;5057009;28;20112;-76
2021/12/17 13:40:10;;;;;;;21.05;9.10;;;;;;;;;;5059702;28;20495;-76
2021/12/17 13:42:39;;;;;;;22.95;8.35;;;;;;;;;;5059671;28;20518;-75
2021/12/17 13:45:09;;;;;;;16.52;6.78;;;;;;;;;;5038761;28;20062;-75
2021/12/17 13:47:42;;;;;;;14.38;7.57;;;;;;;;;;5039243;28;20036;-77
2021/12/17 13:50:24;;;;;;;22.58;9.68;;;;;;;;;;5056805;28;20098;-77
2021/12/17 13:52:54;;;;;;;17.33;8.10;;;;;;;;;;5072008;28;20031;-76
2021/12/17 13:55:25;;;;;;;16.07;8.03;;;;;;;;;;5056484;28;20428;-77
2021/12/17 13:57:51;;;;;;;16.40;8.00;;;;;;;;;;5071432;28;20355;-76
2021/12/17 14:00:23;;;;;;;16.40;8.20;;;;;;;;;;5056085;28;20032;-77
2021/12/17 14:02:49;;;;;;;17.00;8.60;;;;;;;;;;5027468;28;20064;-76
2021/12/17 14:05:27;;;;;;;24.15;11.07;;;;;;;;;;5056310;28;20503;-77
2021/12/17 14:07:53;;;;;;;21.50;10.18;;;;;;;;;;5039110;28;20032;-77
2021/12/17 14:10:24;;;;;;;26.20;11.48;;;;;;;;;;5039199;28;20021;-77
2021/12/17 14:12:49;;;;;;;20.38;11.60;;;;;;;;;;5054981;28;20509;-75
2021/12/17 14:15:27;;;;;;;27.85;13.35;;;;;;;;;;5055009;28;20040;-76
2021/12/17 14:17:55;;;;;;;31.00;15.68;;;;;;;;;;5055056;28;20037;-76
2021/12/17 14:20:28;;;;;;;37.97;21.83;;;;;;;;;;5056263;28;20372;-75
2021/12/17 14:23:03;;;;;;;24.27;13.75;;;;;;;;;;5058450;28;20071;-76
2021/12/17 14:25:40;;;;;;;30.95;16.45;;;;;;;;;;5039064;28;20025;-76
2021/12/17 14:28:21;;;;;;;39.42;20.42;;;;;;;;;;5038992;28;20110;-77
2021/12/17 14:31:10;;;;;;;26.13;12.98;;;;;;;;;;5055982;28;20112;-75
2021/12/17 14:33:41;;;;;;;25.67;12.73;;;;;;;;;;5055995;28;20029;-76
2021/12/17 14:36:13;;;;;;;24.42;10.82;;;;;;;;;;5054703;28;20029;-76
2021/12/17 14:38:50;;;;;;;31.30;12.00;;;;;;;;;;5054716;28;20055;-77
2021/12/17 14:41:17;;;;;;;26.23;12.52;;;;;;;;;;5057033;28;20033;-76
2021/12/17 14:43:50;;;;;;;30.38;13.57;;;;;;;;;;5061261;28;20039;-76
2021/12/17 14:46:31;;;;;;;31.02;15.32;;;;;;;;;;5054858;28;20036;-77
2021/12/17 15:03:26;;;;;;;30.20;13.82;;;;;;;;;;5058149;28;20075;-77
2021/12/17 15:05:52;;;;;;;35.38;15.52;;;;;;;;;;5055472;28;20419;-76
2021/12/17 15:08:18;;;;;;;38.42;17.15;;;;;;;;;;5054214;28;20032;-77
2021/12/17 15:10:45;;;;;;;37.55;16.58;;;;;;;;;;5052845;28;20025;-77
2021/12/17 15:13:10;;;;;;;41.40;17.60;;;;;;;;;;5055538;28;20116;-76
2021/12/17 15:15:37;;;;;;;40.53;17.98;;;;;;;;;;5037402;28;20252;-78
2021/12/17 15:18:13;;;;;;;38.20;17.65;;;;;;;;;;5054206;28;20483;-75
2021/12/17 15:20:39;;;;;;;48.97;21.50;;;;;;;;;;5054542;28;20047;-77
2021/12/17 15:23:05;;;;;;;36.13;16.27;;;;;;;;;;5057610;28;20084;-76
2021/12/17 15:25:30;;;;;;;33.85;16.52;;;;;;;;;;5056741;28;20064;-77
2021/12/17 15:27:56;;;;;;;69.47;33.00;;;;;;;;;;5055030;28;20437;-76
2021/12/17 15:30:31;;;;;;;86.90;39.42;;;;;;;;;;5053762;28;20037;-76
2021/12/17 15:32:56;;;;;;;67.90;29.45;;;;;;;;;;5053615;28;20363;-76
2021/12/17 15:35:23;;;;;;;49.72;22.65;;;;;;;;;;5054608;28;20055;-76
2021/12/17 15:37:49;;;;;;;48.65;21.15;;;;;;;;;;5037300;28;20056;-76
2021/12/17 15:40:15;;;;;;;52.42;22.45;;;;;;;;;;5036757;28;20068;-76
2021/12/17 15:42:40;;;;;;;54.78;24.23;;;;;;;;;;5053662;28;20105;-75
2021/12/17 15:45:07;;;;;;;47.90;21.45;;;;;;;;;;5057976;28;20082;-77
2021/12/17 15:47:33;;;;;;;54.97;23.30;;;;;;;;;;5037093;28;20037;-77
2021/12/17 15:49:58;;;;;;;50.30;21.33;;;;;;;;;;5054843;28;20502;-77
2021/12/17 15:52:24;;;;;;;61.63;24.20;;;;;;;;;;5054511;28;20447;-77
2021/12/17 15:54:49;;;;;;;57.03;22.92;;;;;;;;;;5036751;28;20028;-77
2021/12/17 15:57:16;;;;;;;66.88;28.55;;;;;;;;;;5054539;28;20025;-78
2021/12/17 15:59:43;;;;;;;55.20;23.92;;;;;;;;;;5036719;28;20025;-77
2021/12/17 16:02:08;;;;;;;59.67;23.00;;;;;;;;;;5037069;28;20137;-78
2021/12/17 16:04:38;;;;;;;81.55;34.85;;;;;;;;;;5052543;28;20135;-78
2021/12/17 16:07:04;;;;;;;76.10;29.67;;;;;;;;;;5072119;28;20086;-78
2021/12/17 16:23:03;;;;;;;62.35;25.73;;;;;;;;;;5066424;28;20029;-79
2021/12/17 16:25:28;;;;;;;52.28;22.60;;;;;;;;;;5054111;28;20021;-78
2021/12/17 16:27:54;;;;;;;55.08;21.58;;;;;;;;;;5057226;28;20146;-77
2021/12/17 16:30:19;;;;;;;52.03;21.70;;;;;;;;;;5053052;28;20033;-77
2021/12/17 16:32:45;;;;;;;67.35;25.73;;;;;;;;;;5054053;28;20021;-77
2021/12/17 16:35:10;;;;;;;50.65;19.73;;;;;;;;;;5053865;28;20029;-77
2021/12/17 16:37:36;;;;;;;53.67;23.20;;;;;;;;;;5055105;28;20033;-77
2021/12/17 16:40:02;;;;;;;49.35;23.10;;;;;;;;;;5059412;28;20488;-77
2021/12/17 16:42:28;;;;;;;50.30;23.23;;;;;;;;;;5071922;28;20025;-77
2021/12/17 16:47:26;;;;;;;54.95;23.30;;;;;;;;;;5057182;28;20036;-78
2021/12/17 16:49:52;;;;;;;47.53;20.00;;;;;;;;;;5070032;28;20029;-77
2021/12/17 16:52:17;;;;;;;40.67;18.10;;;;;;;;;;5053582;28;20044;-77
2021/12/17 16:54:43;;;;;;;41.55;18.40;;;;;;;;;;5069207;28;20017;-77
2021/12/17 16:57:08;;;;;;;38.00;17.95;;;;;;;;;;5053688;28;20125;-78
2021/12/17 16:59:34;;;;;;;41.60;18.95;;;;;;;;;;5054107;28;20028;-76
2021/12/17 17:01:59;;;;;;;38.58;17.55;;;;;;;;;;5053838;28;20064;-78
2021/12/17 17:04:25;;;;;;;43.95;18.35;;;;;;;;;;5053929;28;20037;-77
2021/12/17 17:06:50;;;;;;;42.85;18.00;;;;;;;;;;5053385;28;20436;-77
2021/12/17 17:09:16;;;;;;;40.28;16.70;;;;;;;;;;5054959;28;20028;-77
2021/12/17 17:11:43;;;;;;;47.25;18.77;;;;;;;;;;5053765;28;20065;-77
2021/12/17 17:14:09;;;;;;;47.10;23.85;;;;;;;;;;5053595;28;20025;-77
2021/12/17 17:16:36;;;;;;;53.88;28.73;;;;;;;;;;5052345;28;20124;-77
2021/12/17 17:19:03;;;;;;;39.25;16.90;;;;;;;;;;5053691;28;20514;-79
2021/12/17 17:21:29;;;;;;;41.88;18.33;;;;;;;;;;5053216;28;20029;-78
2021/12/17 17:23:55;;;;;;;35.15;15.40;;;;;;;;;;5053490;28;20119;-78
2021/12/17 17:26:21;;;;;;;42.03;16.27;;;;;;;;;;5053476;28;20040;-77
2021/12/17 17:28:46;;;;;;;32.25;15.18;;;;;;;;;;5053584;28;20033;-77
2021/12/17 17:31:13;;;;;;;33.15;14.60;;;;;;;;;;5056664;28;20036;-77
2021/12/17 17:33:46;;;;;;;29.50;11.90;;;;;;;;;;5068891;28;20032;-78
2021/12/17 17:36:12;;;;;;;43.85;18.08;;;;;;;;;;5056885;28;20033;-77
2021/12/17 17:38:37;;;;;;;38.50;15.45;;;;;;;;;;5056985;28;20471;-78
2021/12/17 17:41:03;;;;;;;40.30;19.77;;;;;;;;;;5057194;28;20067;-78
2021/12/17 17:43:28;;;;;;;40.63;17.15;;;;;;;;;;5057485;28;20451;-77
2021/12/17 17:45:53;;;;;;;33.22;15.63;;;;;;;;;;5056844;28;20029;-76
2021/12/17 17:48:19;;;;;;;36.10;16.40;;;;;;;;;;5056982;28;20029;-78
2021/12/17 17:50:46;;;;;;;37.25;15.75;;;;;;;;;;5059959;28;20032;-78
2021/12/17 17:53:11;;;;;;;33.42;15.82;;;;;;;;;;5057962;28;20083;-77
2021/12/17 17:55:38;;;;;;;33.00;14.77;;;;;;;;;;5072538;28;20036;-78
2021/12/17 17:58:04;;;;;;;39.53;15.52;;;;;;;;;;5055953;28;20029;-78
2021/12/17 18:00:30;;;;;;;39.70;16.30;;;;;;;;;;5072173;28;20120;-78
2021/12/17 18:02:55;;;;;;;32.83;14.75;;;;;;;;;;5056754;28;20055;-78